Portada
METAR-TAF:

METAR-TAF

Aeroports :

Base aèria

Selon de Provença, França

latitud: 43-36N, longitud: 005-06E, altitud: 59 m

Observació

L'informe es va fer fa 35 minuts, a les 04:30 UTC
Vent calma
Temperatura 1°C
Humitat 93%
Pressió 1014 hPa
Visibilitat 10 km o més
sense núvols per sota de 1500 mi sense presència de cumulonimbus.

METAR: LFMY 250430Z AUTO 00000KT CAVOK 01/M00 Q1014

Hora: 06:05 (05:05 UTC)

Pronòstic

L'informe es va fer fa 15 hores i 5 minuts, a les 14:00 UTC
Pronòstic vàlid del 24 a les 15 UTC al 25 a les 15 UTC
Vent 10 kt del Nord/Nord-Oest
Visibilitat 10 km o més
sense núvols per sota de 1500 mi sense presència de cumulonimbus.
Evolucionant progressivament
l' 24 a les 19 UTC al 24 a les 21 UTC
Vent 3 kt amb direcció variable
Evolucionant progressivament
l' 25 a les 09 UTC al 25 a les 11 UTC
Vent 10 kt del Nord-Oest

TAF: LFMY 241400Z 2415/2515 33010KT CAVOK BECMG 2419/2421 VRB03KT BECMG 2509/2511 31010KT

Observacions i pronòstics meteorològics de més de 4000 aeroports (METAR i TAF).

Les estacions disponibles són els punts grocs i vermells al mapa.

Posi el ratolí al punt desitjat per veure el nom de l'estació.

Feu clic per veure les observacions i els pronòstics meteorològics.

Per canviar el mapa: feu clic els botons verds amb una creu de color negre per apropar; al botó verd amb un guió per allunyar la imatge; o en les fletxes verdes per a mapes adjacents.


METAR-TAF: